Time;durP1;ratioP1;P1;durP2;ratioP2;P2;SDS_P1;SDS_P2;PMS_P1;PMS_P2;Temp;Humidity;BMP_temperature;BMP_pressure;BME280_temperature;BME280_humidity;BME280_pressure;Samples;Min_cycle;Max_cycle;Signal;HPM_P1;HPM_P2
2022/06/04 00:00:15;;;;;;;;;25.00;22.67;;;;;;;;5094620;27;45556;-73
2022/06/04 00:02:42;;;;;;;;;28.00;25.67;;;;;;;;5096906;27;44722;-73
2022/06/04 00:05:08;;;;;;;;;28.00;26.67;;;;;;;;5093098;27;46637;-73
2022/06/04 00:07:33;;;;;;;;;26.33;25.67;;;;;;;;5089961;27;46995;-73
2022/06/04 00:15:29;;;;;;;;;30.00;28.67;;;;;;;;5090045;27;45198;-73
2022/06/04 00:17:55;;;;;;;;;29.00;26.33;;;;;;;;5090894;27;46408;-73
2022/06/04 00:20:20;;;;;;;;;30.00;27.67;;;;;;;;5091381;27;45403;-73
2022/06/04 00:22:46;;;;;;;;;26.67;25.67;;;;;;;;5094175;27;45455;-73
2022/06/04 00:25:13;;;;;;;;;29.67;27.33;;;;;;;;5093870;27;45506;-73
2022/06/04 00:27:38;;;;;;;;;28.67;26.67;;;;;;;;5092697;27;45399;-73
2022/06/04 00:30:05;;;;;;;;;32.00;30.00;;;;;;;;5093246;27;45312;-73
2022/06/04 00:32:30;;;;;;;;;29.33;27.33;;;;;;;;5092447;27;45490;-72
2022/06/04 00:34:56;;;;;;;;;32.33;28.67;;;;;;;;5096877;27;45416;-72
2022/06/04 00:37:21;;;;;;;;;29.67;29.67;;;;;;;;5092189;27;45354;-72
2022/06/04 00:39:46;;;;;;;;;28.33;28.00;;;;;;;;5097199;27;45176;-71
2022/06/04 00:42:13;;;;;;;;;29.00;27.33;;;;;;;;5059611;27;45295;-71
2022/06/04 00:44:57;;;;;;;;;28.67;26.67;;;;;;;;5099526;27;45197;-71
2022/06/04 00:47:22;;;;;;;;;29.33;27.67;;;;;;;;5091833;27;45252;-71
2022/06/04 00:49:47;;;;;;;;;30.00;30.00;;;;;;;;5097079;27;45238;-71
2022/06/04 00:52:14;;;;;;;;;26.67;26.00;;;;;;;;5090374;27;45297;-72
2022/06/04 00:54:40;;;;;;;;;28.33;27.67;;;;;;;;5097444;27;45263;-72
2022/06/04 00:57:28;;;;;;;;;31.67;27.33;;;;;;;;5070199;27;46091;-73
2022/06/04 01:00:06;;;;;;;;;32.67;30.67;;;;;;;;5074497;27;48385;-72
2022/06/04 01:02:37;;;;;;;;;30.00;28.67;;;;;;;;5092893;27;45231;-72
2022/06/04 01:05:08;;;;;;;;;29.33;27.33;;;;;;;;5091223;27;45361;-71
2022/06/04 01:07:47;;;;;;;;;30.00;30.00;;;;;;;;5056261;27;47015;-72
2022/06/04 01:10:31;;;;;;;;;32.67;29.67;;;;;;;;5072082;27;45752;-72
2022/06/04 01:13:16;;;;;;;;;26.33;26.33;;;;;;;;5088442;27;45390;-72
2022/06/04 01:15:51;;;;;;;;;26.67;26.67;;;;;;;;5089093;27;45632;-71
2022/06/04 01:18:37;;;;;;;;;26.33;25.33;;;;;;;;5092246;27;46060;-71
2022/06/04 01:21:09;;;;;;;;;31.67;30.00;;;;;;;;5072087;27;45491;-71
2022/06/04 01:23:57;;;;;;;;;25.33;24.33;;;;;;;;5095382;27;45232;-71
2022/06/04 01:26:31;;;;;;;;;35.00;30.67;;;;;;;;5048758;27;45768;-71
2022/06/04 01:29:00;;;;;;;;;36.00;31.33;;;;;;;;5093979;27;45402;-72
2022/06/04 01:31:39;;;;;;;;;29.33;29.33;;;;;;;;5072691;27;45396;-72
2022/06/04 01:34:06;;;;;;;;;31.00;29.75;;;;;;;;5095326;27;45421;-72
2022/06/04 01:36:53;;;;;;;;;27.67;27.67;;;;;;;;5093770;27;45485;-72
2022/06/04 01:39:27;;;;;;;;;35.00;29.75;;;;;;;;5094587;27;45480;-72
2022/06/04 01:41:56;;;;;;;;;30.67;27.00;;;;;;;;5090440;27;45133;-72
2022/06/04 01:44:42;;;;;;;;;33.33;28.67;;;;;;;;5091986;27;45464;-72
2022/06/04 01:47:07;;;;;;;;;27.33;27.33;;;;;;;;5092588;27;45284;-72
2022/06/04 01:49:37;;;;;;;;;27.33;26.00;;;;;;;;5100235;27;46138;-72
2022/06/04 01:52:05;;;;;;;;;30.67;29.33;;;;;;;;5091825;27;45453;-72
2022/06/04 01:54:49;;;;;;;;;32.33;28.67;;;;;;;;5099682;27;45282;-71
2022/06/04 01:57:20;;;;;;;;;33.00;29.25;;;;;;;;5093727;27;45071;-72
2022/06/04 01:59:51;;;;;;;;;34.00;29.67;;;;;;;;5092854;27;46277;-71
2022/06/04 02:02:20;;;;;;;;;28.00;24.00;;;;;;;;5093461;27;45359;-71
2022/06/04 02:04:48;;;;;;;;;31.00;26.33;;;;;;;;5095083;27;45426;-71
2022/06/04 02:07:32;;;;;;;;;32.00;30.00;;;;;;;;5055123;27;46324;-72
2022/06/04 02:10:01;;;;;;;;;30.67;27.67;;;;;;;;5098081;27;46337;-71
2022/06/04 02:12:26;;;;;;;;;32.75;30.00;;;;;;;;5092077;27;45316;-71
2022/06/04 02:14:51;;;;;;;;;27.00;26.00;;;;;;;;5098018;27;45326;-71
2022/06/04 02:17:19;;;;;;;;;30.00;29.00;;;;;;;;5091772;27;45281;-71
2022/06/04 02:19:45;;;;;;;;;27.33;27.33;;;;;;;;5096949;27;45329;-71
2022/06/04 02:22:11;;;;;;;;;35.00;26.00;;;;;;;;5090214;27;45348;-71
2022/06/04 02:24:37;;;;;;;;;26.00;26.00;;;;;;;;5100576;27;45424;-72
2022/06/04 02:27:04;;;;;;;;;26.33;25.00;;;;;;;;5089242;27;45454;-71
2022/06/04 02:29:29;;;;;;;;;23.67;23.67;;;;;;;;5063126;27;47064;-72
2022/06/04 02:31:54;;;;;;;;;29.67;24.00;;;;;;;;5089279;27;48139;-72
2022/06/04 02:34:23;;;;;;;;;27.00;26.67;;;;;;;;5094630;27;45279;-72
2022/06/04 02:37:01;;;;;;;;;29.33;27.00;;;;;;;;5092007;27;45420;-72
2022/06/04 02:39:32;;;;;;;;;28.67;25.67;;;;;;;;5099149;27;46151;-71
2022/06/04 02:42:05;;;;;;;;;24.67;24.00;;;;;;;;5091264;27;45190;-71
2022/06/04 02:44:54;;;;;;;;;30.00;27.00;;;;;;;;5083998;27;45319;-72
2022/06/04 02:47:26;;;;;;;;;30.00;27.67;;;;;;;;5066389;27;47277;-72
2022/06/04 02:50:12;;;;;;;;;35.67;29.00;;;;;;;;5080113;27;46705;-72
2022/06/04 02:52:38;;;;;;;;;37.00;29.67;;;;;;;;5070086;27;46174;-72
2022/06/04 02:55:07;;;;;;;;;29.67;27.67;;;;;;;;5095879;27;45307;-71
2022/06/04 02:57:34;;;;;;;;;27.33;27.33;;;;;;;;5093168;27;45550;-72
2022/06/04 03:00:00;;;;;;;;;32.33;28.67;;;;;;;;5078157;27;48196;-71
2022/06/04 03:02:27;;;;;;;;;27.33;25.67;;;;;;;;5092049;27;45342;-72
2022/06/04 03:04:53;;;;;;;;;30.67;27.33;;;;;;;;5096144;27;45251;-72
2022/06/04 03:07:20;;;;;;;;;24.67;23.33;;;;;;;;5056210;27;45387;-72
2022/06/04 03:09:46;;;;;;;;;34.67;30.67;;;;;;;;5101153;27;45173;-72
2022/06/04 03:12:14;;;;;;;;;25.33;25.00;;;;;;;;5089944;27;45447;-72
2022/06/04 03:14:39;;;;;;;;;33.00;31.00;;;;;;;;5098203;27;45395;-72
2022/06/04 03:17:09;;;;;;;;;27.33;26.00;;;;;;;;5071565;27;45375;-72
2022/06/04 03:19:34;;;;;;;;;30.33;26.67;;;;;;;;5095618;27;46243;-72
2022/06/04 03:22:00;;;;;;;;;31.00;27.33;;;;;;;;5094992;27;45473;-72
2022/06/04 03:24:25;;;;;;;;;29.00;26.00;;;;;;;;5095913;27;45375;-72
2022/06/04 03:26:50;;;;;;;;;29.33;26.33;;;;;;;;5090513;27;45481;-72
2022/06/04 03:29:16;;;;;;;;;30.00;28.33;;;;;;;;5095028;27;46195;-72
2022/06/04 03:31:41;;;;;;;;;26.67;25.33;;;;;;;;5089394;27;45422;-72
2022/06/04 03:34:06;;;;;;;;;28.00;27.00;;;;;;;;5077369;27;45775;-72
2022/06/04 03:36:32;;;;;;;;;33.67;31.33;;;;;;;;5091854;27;46991;-72
2022/06/04 03:38:58;;;;;;;;;31.33;28.00;;;;;;;;5095905;27;45509;-72
2022/06/04 03:41:24;;;;;;;;;28.00;28.00;;;;;;;;5091832;27;45408;-71
2022/06/04 03:43:52;;;;;;;;;29.67;28.00;;;;;;;;5096510;27;45488;-71
2022/06/04 03:46:17;;;;;;;;;26.33;25.33;;;;;;;;5091625;27;45209;-71
2022/06/04 03:48:43;;;;;;;;;32.00;28.00;;;;;;;;5078511;27;47338;-71
2022/06/04 03:51:08;;;;;;;;;29.67;27.00;;;;;;;;5073521;27;45324;-71
2022/06/04 03:53:33;;;;;;;;;27.00;26.67;;;;;;;;5092715;27;45337;-71
2022/06/04 03:55:58;;;;;;;;;27.33;24.67;;;;;;;;5092734;27;45214;-71
2022/06/04 03:58:29;;;;;;;;;25.33;23.00;;;;;;;;5092802;27;46291;-71
2022/06/04 04:00:55;;;;;;;;;30.00;26.00;;;;;;;;5093115;27;45366;-71
2022/06/04 04:03:20;;;;;;;;;30.00;28.00;;;;;;;;5076272;27;45359;-72
2022/06/04 04:05:47;;;;;;;;;29.00;28.00;;;;;;;;5088763;27;45493;-73
2022/06/04 04:08:12;;;;;;;;;27.00;27.00;;;;;;;;5089897;27;46390;-73
2022/06/04 04:10:39;;;;;;;;;27.33;24.00;;;;;;;;5069867;27;45556;-73
2022/06/04 04:13:04;;;;;;;;;23.67;22.67;;;;;;;;5095078;27;45432;-72
2022/06/04 04:15:29;;;;;;;;;29.67;26.00;;;;;;;;5089653;27;45402;-72
2022/06/04 04:17:55;;;;;;;;;28.33;24.67;;;;;;;;5074810;27;48130;-72
2022/06/04 04:20:22;;;;;;;;;22.33;22.33;;;;;;;;5073866;27;46341;-72
2022/06/04 04:22:47;;;;;;;;;26.67;23.67;;;;;;;;5059531;27;45524;-72
2022/06/04 04:25:13;;;;;;;;;27.67;27.67;;;;;;;;5094166;27;45395;-72
2022/06/04 04:27:39;;;;;;;;;28.33;26.67;;;;;;;;5090921;27;46322;-72
2022/06/04 04:30:05;;;;;;;;;27.00;26.33;;;;;;;;5091012;27;45331;-72
2022/06/04 04:32:31;;;;;;;;;25.67;24.00;;;;;;;;5069601;27;45376;-72
2022/06/04 04:34:57;;;;;;;;;30.00;24.33;;;;;;;;5095783;27;45493;-72
2022/06/04 04:37:22;;;;;;;;;25.67;23.67;;;;;;;;5073552;27;48511;-72
2022/06/04 04:39:47;;;;;;;;;24.67;24.00;;;;;;;;5081764;27;45291;-72
2022/06/04 04:42:12;;;;;;;;;28.67;27.00;;;;;;;;5091598;27;45470;-73
2022/06/04 04:44:37;;;;;;;;;27.67;25.67;;;;;;;;5098711;27;45252;-72
2022/06/04 04:47:03;;;;;;;;;24.33;24.33;;;;;;;;5088854;27;46209;-72
2022/06/04 04:49:28;;;;;;;;;28.33;27.33;;;;;;;;5063100;27;45333;-73
2022/06/04 04:51:53;;;;;;;;;27.33;25.00;;;;;;;;5085243;27;45329;-72
2022/06/04 04:54:18;;;;;;;;;28.67;27.33;;;;;;;;5095559;27;45533;-73
2022/06/04 04:56:44;;;;;;;;;26.00;26.00;;;;;;;;5070532;27;47257;-72
2022/06/04 04:59:10;;;;;;;;;26.00;26.00;;;;;;;;5078106;27;45538;-72
2022/06/04 05:01:35;;;;;;;;;29.33;26.33;;;;;;;;5070332;27;45578;-72
2022/06/04 05:04:01;;;;;;;;;25.33;24.33;;;;;;;;5076167;27;45981;-72
2022/06/04 05:06:26;;;;;;;;;22.67;21.33;;;;;;;;5087406;27;45359;-72
2022/06/04 05:08:52;;;;;;;;;29.33;27.00;;;;;;;;5074509;27;45885;-71
2022/06/04 05:11:23;;;;;;;;;27.00;25.67;;;;;;;;5087905;27;45386;-71
2022/06/04 05:13:51;;;;;;;;;28.33;27.67;;;;;;;;5096583;27;45306;-72
2022/06/04 05:16:18;;;;;;;;;26.00;24.67;;;;;;;;5067390;27;48323;-72
2022/06/04 05:18:43;;;;;;;;;32.67;29.67;;;;;;;;5094893;27;45496;-72
2022/06/04 05:21:11;;;;;;;;;22.67;20.67;;;;;;;;5086439;27;45470;-72
2022/06/04 05:23:36;;;;;;;;;26.67;25.00;;;;;;;;5094092;27;45999;-72
2022/06/04 05:26:01;;;;;;;;;25.67;24.33;;;;;;;;5088988;27;45428;-72
2022/06/04 05:28:26;;;;;;;;;30.00;28.67;;;;;;;;5089234;27;45322;-72
2022/06/04 05:30:51;;;;;;;;;24.67;22.33;;;;;;;;5088533;27;45474;-73
2022/06/04 05:33:17;;;;;;;;;26.00;24.00;;;;;;;;5088464;27;45216;-73
2022/06/04 05:35:42;;;;;;;;;26.00;23.67;;;;;;;;5069641;27;47111;-75
2022/06/04 05:38:07;;;;;;;;;26.00;25.67;;;;;;;;5089460;27;44647;-74
2022/06/04 05:40:33;;;;;;;;;26.67;25.67;;;;;;;;5089226;27;45622;-75
2022/06/04 05:42:58;;;;;;;;;30.33;26.00;;;;;;;;5092523;27;45235;-75
2022/06/04 05:45:23;;;;;;;;;28.67;27.67;;;;;;;;5089603;27;45282;-74
2022/06/04 05:47:49;;;;;;;;;29.33;26.67;;;;;;;;5093414;27;45151;-75
2022/06/04 05:50:14;;;;;;;;;28.00;25.33;;;;;;;;5093373;27;45241;-75
2022/06/04 05:52:39;;;;;;;;;26.00;23.33;;;;;;;;5089461;27;45516;-76
2022/06/04 05:55:05;;;;;;;;;30.33;26.67;;;;;;;;5092820;27;45288;-77
2022/06/04 05:57:30;;;;;;;;;28.33;24.67;;;;;;;;5092157;27;45260;-75
2022/06/04 05:59:55;;;;;;;;;26.67;24.00;;;;;;;;5095966;27;45243;-74
2022/06/04 06:02:21;;;;;;;;;23.33;20.33;;;;;;;;5087572;27;45505;-76
2022/06/04 06:04:46;;;;;;;;;26.33;26.33;;;;;;;;5077093;27;47308;-73
2022/06/04 06:07:11;;;;;;;;;26.33;24.67;;;;;;;;5067071;27;45344;-73
2022/06/04 06:09:36;;;;;;;;;28.67;25.33;;;;;;;;5093242;27;45343;-73
2022/06/04 06:12:02;;;;;;;;;23.33;22.33;;;;;;;;5070758;27;46167;-74
2022/06/04 06:14:27;;;;;;;;;26.00;24.00;;;;;;;;5092336;27;46099;-75
2022/06/04 06:16:53;;;;;;;;;27.33;23.33;;;;;;;;5088748;27;45375;-74
2022/06/04 06:19:19;;;;;;;;;23.33;23.33;;;;;;;;5075182;27;45240;-74
2022/06/04 06:21:44;;;;;;;;;27.00;24.33;;;;;;;;5087622;27;45695;-74
2022/06/04 06:24:10;;;;;;;;;23.00;22.00;;;;;;;;5076563;27;46947;-74
2022/06/04 06:26:48;;;;;;;;;25.00;24.67;;;;;;;;5051788;27;45608;-73
2022/06/04 06:29:15;;;;;;;;;26.00;24.00;;;;;;;;5062558;27;45485;-73
2022/06/04 06:31:40;;;;;;;;;27.33;23.33;;;;;;;;5090321;27;45672;-74
2022/06/04 06:34:05;;;;;;;;;25.67;25.67;;;;;;;;5079094;27;47516;-73
2022/06/04 06:36:30;;;;;;;;;22.33;22.00;;;;;;;;5074147;27;45450;-73
2022/06/04 06:38:56;;;;;;;;;25.00;23.00;;;;;;;;5097219;27;45417;-74
2022/06/04 06:41:23;;;;;;;;;24.67;24.33;;;;;;;;5058233;28;47081;-73
2022/06/04 06:43:51;;;;;;;;;22.67;21.67;;;;;;;;5060696;28;48010;-73
2022/06/04 06:46:17;;;;;;;;;25.33;23.67;;;;;;;;5058326;28;45336;-74
2022/06/04 06:48:43;;;;;;;;;23.67;23.00;;;;;;;;5085022;27;45416;-75
2022/06/04 06:51:10;;;;;;;;;25.00;23.00;;;;;;;;5080029;27;45375;-75
2022/06/04 06:53:35;;;;;;;;;28.33;24.00;;;;;;;;5082486;27;46540;-76
2022/06/04 06:56:11;;;;;;;;;27.00;25.33;;;;;;;;5080651;27;45214;-74
2022/06/04 06:58:36;;;;;;;;;31.33;28.33;;;;;;;;5060184;28;45375;-74
2022/06/04 07:01:02;;;;;;;;;26.67;25.00;;;;;;;;5090674;27;46063;-74
2022/06/04 07:03:28;;;;;;;;;25.33;21.67;;;;;;;;5083377;27;46190;-75
2022/06/04 07:05:54;;;;;;;;;27.00;26.67;;;;;;;;5077474;27;45239;-74
2022/06/04 07:08:20;;;;;;;;;27.67;27.00;;;;;;;;5080683;27;45337;-74
2022/06/04 07:10:45;;;;;;;;;29.33;25.67;;;;;;;;5072991;27;45559;-74
2022/06/04 07:13:10;;;;;;;;;25.00;22.00;;;;;;;;5060516;28;48615;-73
2022/06/04 07:15:36;;;;;;;;;22.33;22.00;;;;;;;;5076661;27;45429;-73
2022/06/04 07:18:01;;;;;;;;;27.00;26.00;;;;;;;;5077970;27;45435;-74
2022/06/04 07:20:26;;;;;;;;;22.67;22.00;;;;;;;;5077773;27;45366;-75
2022/06/04 07:22:52;;;;;;;;;25.33;24.33;;;;;;;;5083768;27;45382;-74
2022/06/04 07:25:18;;;;;;;;;24.67;24.67;;;;;;;;5092524;27;46021;-75
2022/06/04 07:27:43;;;;;;;;;24.67;24.00;;;;;;;;5085441;27;45305;-74
2022/06/04 07:30:08;;;;;;;;;27.67;24.67;;;;;;;;5088009;27;45306;-73
2022/06/04 07:32:34;;;;;;;;;30.67;28.67;;;;;;;;5083455;27;46148;-72
2022/06/04 07:34:59;;;;;;;;;30.00;25.33;;;;;;;;5079444;27;45221;-74
2022/06/04 07:37:24;;;;;;;;;26.67;21.33;;;;;;;;5090721;27;45356;-74
2022/06/04 07:39:49;;;;;;;;;27.67;26.00;;;;;;;;5062531;28;46289;-83
2022/06/04 07:42:15;;;;;;;;;29.33;29.00;;;;;;;;5072299;27;45228;-75
2022/06/04 07:44:40;;;;;;;;;28.67;28.00;;;;;;;;5085741;27;45407;-75
2022/06/04 07:47:05;;;;;;;;;28.00;26.33;;;;;;;;5072211;27;45249;-75
2022/06/04 07:49:30;;;;;;;;;28.00;24.67;;;;;;;;5087469;27;45299;-75
2022/06/04 07:51:55;;;;;;;;;33.00;30.67;;;;;;;;5077283;27;46512;-75
2022/06/04 07:54:21;;;;;;;;;33.00;29.67;;;;;;;;5083757;27;45358;-75
2022/06/04 07:56:46;;;;;;;;;32.67;28.00;;;;;;;;5085440;27;45665;-76
2022/06/04 07:59:13;;;;;;;;;26.00;25.00;;;;;;;;5071784;28;47463;-75
2022/06/04 08:01:38;;;;;;;;;28.00;28.00;;;;;;;;5078629;27;47018;-75
2022/06/04 08:04:04;;;;;;;;;33.00;27.00;;;;;;;;5084801;27;45506;-75
2022/06/04 08:06:31;;;;;;;;;29.67;27.33;;;;;;;;5083533;27;46132;-75
2022/06/04 08:08:58;;;;;;;;;31.33;29.33;;;;;;;;5079921;27;45407;-76
2022/06/04 08:11:33;;;;;;;;;32.00;28.67;;;;;;;;5074213;27;45716;-75
2022/06/04 08:14:04;;;;;;;;;29.00;29.00;;;;;;;;5061912;28;45298;-76
2022/06/04 08:16:30;;;;;;;;;30.33;29.00;;;;;;;;5077635;27;45553;-75
2022/06/04 08:18:55;;;;;;;;;30.67;28.67;;;;;;;;5082432;27;45557;-75
2022/06/04 08:21:21;;;;;;;;;35.00;30.33;;;;;;;;5058117;28;47930;-75
2022/06/04 08:23:47;;;;;;;;;30.67;27.67;;;;;;;;5074861;27;45343;-75
2022/06/04 08:26:12;;;;;;;;;30.67;28.33;;;;;;;;5077609;27;45452;-76
2022/06/04 08:28:37;;;;;;;;;30.00;27.67;;;;;;;;5079229;28;45415;-76
2022/06/04 08:31:05;;;;;;;;;35.00;30.33;;;;;;;;5076540;28;46429;-75
2022/06/04 08:33:30;;;;;;;;;33.33;30.33;;;;;;;;5061512;28;45311;-76
2022/06/04 08:35:55;;;;;;;;;34.00;30.00;;;;;;;;5079590;27;45278;-74
2022/06/04 08:38:20;;;;;;;;;31.33;29.33;;;;;;;;5080244;28;45229;-76
2022/06/04 08:40:48;;;;;;;;;39.00;31.67;;;;;;;;5082925;27;45143;-75
2022/06/04 08:43:16;;;;;;;;;29.67;27.67;;;;;;;;5096748;27;45326;-76
2022/06/04 08:45:41;;;;;;;;;33.33;29.67;;;;;;;;5088632;27;45579;-78
2022/06/04 08:48:13;;;;;;;;;26.33;26.33;;;;;;;;5092739;27;45287;-78
2022/06/04 08:50:38;;;;;;;;;30.67;30.00;;;;;;;;5082531;27;46266;-76
2022/06/04 08:53:04;;;;;;;;;30.33;26.33;;;;;;;;5087066;27;45362;-76
2022/06/04 08:58:38;;;;;;;;;24.33;23.67;;;;;;;;5089069;27;45296;-77
2022/06/04 09:01:17;;;;;;;;;28.33;28.33;;;;;;;;5073752;27;48089;-76
2022/06/04 09:03:55;;;;;;;;;27.50;23.00;;;;;;;;5096344;27;45402;-77
2022/06/04 09:06:31;;;;;;;;;27.00;27.00;;;;;;;;5085453;27;45709;-77
2022/06/04 09:08:56;;;;;;;;;27.33;26.33;;;;;;;;5092777;27;45365;-76
2022/06/04 09:11:26;;;;;;;;;27.00;25.33;;;;;;;;5077380;27;45442;-77
2022/06/04 09:14:00;;;;;;;;;31.33;26.33;;;;;;;;5060987;28;47435;-76
2022/06/04 09:16:28;;;;;;;;;26.67;25.67;;;;;;;;5072922;27;45405;-76
2022/06/04 09:18:58;;;;;;;;;24.00;24.00;;;;;;;;5049270;27;46623;-76
2022/06/04 09:21:27;;;;;;;;;36.33;31.67;;;;;;;;5068432;27;48505;-76
2022/06/04 09:23:53;;;;;;;;;28.33;25.67;;;;;;;;5097936;27;45403;-76
2022/06/04 09:26:25;;;;;;;;;25.00;22.33;;;;;;;;5090650;27;45533;-75
2022/06/04 09:29:05;;;;;;;;;24.33;20.33;;;;;;;;5096820;27;45433;-77
2022/06/04 09:31:55;;;;;;;;;23.00;23.00;;;;;;;;5088202;27;45393;-76
2022/06/04 09:34:26;;;;;;;;;22.00;21.75;;;;;;;;5076570;27;45450;-75
2022/06/04 09:36:51;;;;;;;;;23.50;21.50;;;;;;;;5091164;27;46075;-76
2022/06/04 09:39:24;;;;;;;;;34.67;30.00;;;;;;;;5078025;27;47322;-73
2022/06/04 09:41:55;;;;;;;;;22.75;19.00;;;;;;;;5084781;27;45426;-76
2022/06/04 09:44:21;;;;;;;;;22.00;19.75;;;;;;;;5059306;27;45786;-75
2022/06/04 09:46:47;;;;;;;;;19.00;18.25;;;;;;;;5086407;27;45251;-76
2022/06/04 09:49:20;;;;;;;;;21.75;20.50;;;;;;;;5069361;27;47294;-75
2022/06/04 09:51:46;;;;;;;;;21.50;20.25;;;;;;;;5070341;28;45240;-75
2022/06/04 09:54:23;;;;;;;;;21.50;20.25;;;;;;;;5083812;27;45419;-76
2022/06/04 09:56:51;;;;;;;;;15.75;15.00;;;;;;;;5075803;27;45341;-76
2022/06/04 09:59:19;;;;;;;;;18.00;18.00;;;;;;;;5078505;28;45406;-75
2022/06/04 10:01:53;;;;;;;;;17.00;17.00;;;;;;;;5072723;28;46380;-76
2022/06/04 10:04:18;;;;;;;;;21.40;19.20;;;;;;;;5066990;28;46218;-75
2022/06/04 10:06:44;;;;;;;;;19.50;19.50;;;;;;;;5077226;27;45248;-76
2022/06/04 10:12:07;;;;;;;;;15.20;15.20;;;;;;;;5078329;27;45520;-76
2022/06/04 10:14:39;;;;;;;;;16.40;15.00;;;;;;;;5081851;27;45232;-78
2022/06/04 10:17:05;;;;;;;;;19.40;16.60;;;;;;;;5077383;27;45284;-77
2022/06/04 10:19:31;;;;;;;;;16.00;14.60;;;;;;;;5079057;27;45380;-77
2022/06/04 10:22:11;;;;;;;;;15.40;15.40;;;;;;;;5076327;27;46082;-77
2022/06/04 10:24:42;;;;;;;;;11.40;10.80;;;;;;;;5067540;28;45361;-78
2022/06/04 10:27:26;;;;;;;;;12.00;10.40;;;;;;;;5082267;27;45402;-79
2022/06/04 10:29:57;;;;;;;;;11.00;9.20;;;;;;;;5088343;27;45248;-76
2022/06/04 10:32:42;;;;;;;;;9.20;9.20;;;;;;;;5087497;27;45344;-75
2022/06/04 10:35:25;;;;;;;;;11.60;9.00;;;;;;;;5093779;27;45395;-76
2022/06/04 10:38:09;;;;;;;;;12.20;10.80;;;;;;;;5064557;27;45328;-76
2022/06/04 10:40:34;;;;;;;;;12.60;12.60;;;;;;;;5087615;27;45399;-77
2022/06/04 10:42:59;;;;;;;;;8.75;8.75;;;;;;;;5082700;27;45911;-77
2022/06/04 10:45:37;;;;;;;;;7.75;7.00;;;;;;;;5080557;27;45342;-77
2022/06/04 10:48:21;;;;;;;;;9.00;9.00;;;;;;;;5078157;27;45369;-75
2022/06/04 10:53:53;;;;;;;;;9.40;9.40;;;;;;;;5081233;27;45769;-76
2022/06/04 10:56:23;;;;;;;;;9.20;7.20;;;;;;;;5070826;27;45344;-77
2022/06/04 10:59:18;;;;;;;;;11.40;11.40;;;;;;;;5081485;27;45491;-76
2022/06/04 11:01:46;;;;;;;;;10.20;9.00;;;;;;;;4987133;28;45477;-76
2022/06/04 11:04:15;;;;;;;;;7.80;7.80;;;;;;;;5071778;27;48155;-78
2022/06/04 11:06:46;;;;;;;;;8.00;7.80;;;;;;;;5088591;27;45410;-78
2022/06/04 11:09:15;;;;;;;;;8.60;7.00;;;;;;;;5092096;27;45504;-76
2022/06/04 11:11:44;;;;;;;;;8.80;7.80;;;;;;;;5083875;27;45332;-74
2022/06/04 11:14:10;;;;;;;;;13.20;12.40;;;;;;;;5094020;27;45418;-74
2022/06/04 11:16:39;;;;;;;;;11.40;8.60;;;;;;;;5079277;27;45364;-74
2022/06/04 11:19:06;;;;;;;;;12.80;12.20;;;;;;;;5062246;28;45481;-74
2022/06/04 11:21:35;;;;;;;;;9.80;8.40;;;;;;;;5065042;28;45852;-77
2022/06/04 11:24:13;;;;;;;;;9.80;9.80;;;;;;;;5065100;28;48633;-75
2022/06/04 11:26:43;;;;;;;;;10.60;9.60;;;;;;;;5078444;27;45214;-75
2022/06/04 11:29:11;;;;;;;;;9.00;9.00;;;;;;;;5081969;27;45402;-78
2022/06/04 11:31:42;;;;;;;;;8.80;8.80;;;;;;;;5080321;27;46067;-75
2022/06/04 11:34:14;;;;;;;;;9.20;8.80;;;;;;;;5079769;27;45410;-75
2022/06/04 11:36:54;;;;;;;;;11.60;11.00;;;;;;;;5072795;27;45286;-76
2022/06/04 11:39:33;;;;;;;;;9.40;9.40;;;;;;;;5084481;27;45588;-76
2022/06/04 11:42:10;;;;;;;;;9.40;9.40;;;;;;;;5057585;28;45243;-77
2022/06/04 11:44:35;;;;;;;;;9.00;9.00;;;;;;;;5056125;27;47345;-76
2022/06/04 11:47:06;;;;;;;;;8.00;8.00;;;;;;;;5081080;27;45399;-75
2022/06/04 11:49:31;;;;;;;;;9.00;9.00;;;;;;;;5096613;27;45361;-76
2022/06/04 11:51:56;;;;;;;;;13.25;12.00;;;;;;;;5063914;28;47299;-74
2022/06/04 11:54:48;;;;;;;;;6.00;6.00;;;;;;;;5080554;27;45639;-75
2022/06/04 11:57:23;;;;;;;;;9.40;8.20;;;;;;;;5056989;27;45551;-76
2022/06/04 12:00:02;;;;;;;;;11.00;10.60;;;;;;;;5076450;27;45585;-76
2022/06/04 12:02:31;;;;;;;;;8.40;7.20;;;;;;;;5083615;27;45525;-76
2022/06/04 12:05:08;;;;;;;;;10.80;8.40;;;;;;;;5096156;27;45303;-72
2022/06/04 12:07:39;;;;;;;;;7.60;7.60;;;;;;;;5078089;27;45531;-73
2022/06/04 12:10:04;;;;;;;;;4.60;4.00;;;;;;;;5060575;28;45464;-74
2022/06/04 12:12:33;;;;;;;;;9.50;9.50;;;;;;;;5078475;27;45594;-73
2022/06/04 12:15:18;;;;;;;;;9.60;9.40;;;;;;;;5079313;27;46780;-73
2022/06/04 12:17:48;;;;;;;;;11.60;10.00;;;;;;;;5076961;27;45485;-73
2022/06/04 12:26:23;;;;;;;;;10.00;10.00;;;;;;;;5076762;27;45912;-74
2022/06/04 12:28:48;;;;;;;;;10.00;9.20;;;;;;;;5092586;27;45445;-73
2022/06/04 12:31:24;;;;;;;;;9.75;9.75;;;;;;;;5075006;27;45293;-72
2022/06/04 12:33:51;;;;;;;;;9.80;9.80;;;;;;;;5076768;27;45174;-73
2022/06/04 12:36:24;;;;;;;;;10.60;10.60;;;;;;;;5082771;27;45261;-73
2022/06/04 12:38:56;;;;;;;;;9.00;8.60;;;;;;;;5080021;28;45446;-73
2022/06/04 12:41:22;;;;;;;;;8.00;8.00;;;;;;;;5076590;27;45476;-73
2022/06/04 12:43:55;;;;;;;;;10.00;9.00;;;;;;;;5088819;27;45521;-73
2022/06/04 12:46:23;;;;;;;;;11.20;9.20;;;;;;;;5080573;27;45429;-74
2022/06/04 12:48:51;;;;;;;;;8.00;7.00;;;;;;;;5079350;28;45634;-73
2022/06/04 12:51:26;;;;;;;;;9.40;9.40;;;;;;;;5074180;28;45418;-73
2022/06/04 12:53:59;;;;;;;;;8.40;8.20;;;;;;;;5078315;27;45463;-72
2022/06/04 12:56:27;;;;;;;;;10.80;10.80;;;;;;;;5073812;28;45502;-71
2022/06/04 12:58:53;;;;;;;;;10.00;9.20;;;;;;;;5079441;27;45320;-72
2022/06/04 13:01:18;;;;;;;;;10.60;10.00;;;;;;;;5054752;28;45621;-72
2022/06/04 13:03:45;;;;;;;;;9.00;9.00;;;;;;;;5078992;27;45359;-72
2022/06/04 13:06:13;;;;;;;;;9.00;9.00;;;;;;;;5074821;28;45987;-72
2022/06/04 13:08:46;;;;;;;;;11.20;10.20;;;;;;;;5074944;28;45565;-70
2022/06/04 13:11:11;;;;;;;;;8.80;8.80;;;;;;;;5085000;27;45505;-72
2022/06/04 13:13:36;;;;;;;;;10.50;9.75;;;;;;;;5091403;27;46049;-72
2022/06/04 13:16:04;;;;;;;;;10.75;10.75;;;;;;;;5080038;27;46362;-72
2022/06/04 13:18:35;;;;;;;;;8.40;8.40;;;;;;;;5078873;27;45398;-72
2022/06/04 13:21:01;;;;;;;;;9.20;8.60;;;;;;;;5074602;27;45343;-72
2022/06/04 13:23:27;;;;;;;;;11.60;10.60;;;;;;;;5078002;27;45358;-73
2022/06/04 13:26:13;;;;;;;;;10.20;9.60;;;;;;;;5079136;28;45992;-72
2022/06/04 13:28:40;;;;;;;;;10.00;9.80;;;;;;;;5088999;27;45426;-72
2022/06/04 13:31:16;;;;;;;;;9.00;8.00;;;;;;;;5078367;27;45367;-74
2022/06/04 13:33:42;;;;;;;;;7.80;7.80;;;;;;;;5060110;28;47409;-73
2022/06/04 13:36:07;;;;;;;;;8.50;8.50;;;;;;;;5075756;28;45464;-73
2022/06/04 13:38:37;;;;;;;;;8.50;8.50;;;;;;;;5075964;28;45360;-73
2022/06/04 13:44:14;;;;;;;;;9.00;7.00;;;;;;;;5077102;27;45363;-72
2022/06/04 13:46:40;;;;;;;;;6.40;6.20;;;;;;;;5073918;27;46085;-73
2022/06/04 13:49:11;;;;;;;;;5.00;5.00;;;;;;;;5078184;27;45787;-73
2022/06/04 13:51:41;;;;;;;;;5.40;5.20;;;;;;;;5073454;27;45213;-73
2022/06/04 13:54:18;;;;;;;;;4.00;4.00;;;;;;;;5092585;27;45431;-73
2022/06/04 13:56:43;;;;;;;;;4.00;4.00;;;;;;;;5083531;27;46345;-73
2022/06/04 13:59:17;;;;;;;;;6.25;5.00;;;;;;;;5078704;27;45262;-73
2022/06/04 14:01:42;;;;;;;;;4.80;4.80;;;;;;;;5072099;27;45386;-73
2022/06/04 14:06:54;;;;;;;;;4.00;4.00;;;;;;;;5074205;28;45658;-73
2022/06/04 14:09:21;;;;;;;;;5.00;5.00;;;;;;;;5089455;27;45885;-73
2022/06/04 14:11:46;;;;;;;;;6.40;5.60;;;;;;;;5076661;27;45621;-73
2022/06/04 14:14:11;;;;;;;;;5.75;5.75;;;;;;;;5078505;27;45312;-73
2022/06/04 14:16:43;;;;;;;;;4.25;4.25;;;;;;;;5076296;28;45575;-73
2022/06/04 14:19:17;;;;;;;;;6.40;6.40;;;;;;;;5078192;27;45375;-73
2022/06/04 14:21:46;;;;;;;;;8.40;6.80;;;;;;;;5081391;27;45447;-71
2022/06/04 14:24:11;;;;;;;;;5.20;5.20;;;;;;;;5080906;27;45304;-73
2022/06/04 14:26:41;;;;;;;;;4.50;4.50;;;;;;;;5075458;27;46116;-72
2022/06/04 14:29:25;;;;;;;;;5.20;5.20;;;;;;;;5075633;27;45437;-73
2022/06/04 14:31:56;;;;;;;;;9.20;6.40;;;;;;;;5075647;28;45457;-72
2022/06/04 14:34:21;;;;;;;;;5.00;5.00;;;;;;;;5076877;27;45363;-73
2022/06/04 14:36:51;;;;;;;;;5.00;5.00;;;;;;;;5076254;28;45769;-73
2022/06/04 14:39:17;;;;;;;;;6.20;6.20;;;;;;;;5061164;27;45429;-72
2022/06/04 14:42:04;;;;;;;;;7.00;7.00;;;;;;;;5073000;27;45609;-71
2022/06/04 14:44:39;;;;;;;;;6.60;5.20;;;;;;;;5088083;27;45305;-72
2022/06/04 14:47:11;;;;;;;;;5.00;5.00;;;;;;;;5075185;27;45532;-72
2022/06/04 14:49:36;;;;;;;;;7.60;7.00;;;;;;;;5068879;28;45284;-71
2022/06/04 14:52:10;;;;;;;;;9.50;7.25;;;;;;;;5058052;28;45383;-72
2022/06/04 14:54:36;;;;;;;;;8.00;7.00;;;;;;;;5076548;27;45620;-72
2022/06/04 14:57:02;;;;;;;;;11.00;10.00;;;;;;;;5089177;27;45466;-73
2022/06/04 14:59:38;;;;;;;;;3.25;3.25;;;;;;;;5083730;27;45358;-72